Nemacolin, Pennsylvania
Current Conditions -  °F | °C
As of 2:30 PM on Tuesday 21 Oct 2014 (Local Time) from KMGW Reporting Station
Overcast Overcast  
Wind Chill: 54°   Ceiling: 6000
Heat Index: 54°   Visibility: 8mi
Dew Point: 47°   Wind: 6mph
Humidity: 77%   Direction: 320°NW
Pressure: 29.89"   Gusts: NA
Location:  39.88°N, 79.92°W
Report Text: KMGW 211830Z 32005KT 8SM SCT008 SCT046 OVC060 12/08 A2989 RMK AO2 RAE20 P0002 T01220083
Loading
Personal Weather Stations






























Interactive Weather Map
Tropical Storm Tracking
New forecast layout! Learn more

10-Day Weather Forecast

Advertisements
Track Severe Weather on mobile